sensor_id;sensor_type;location;lat;lon;timestamp;P1;durP1;ratioP1;P2;durP2;ratioP2
68923;SDS011;55961;52.156;20.942;2022-12-13T00:01:17;12.43;;;5.25;;
68923;SDS011;55961;52.156;20.942;2022-12-13T00:03:43;11.68;;;4.18;;
68923;SDS011;55961;52.156;20.942;2022-12-13T00:06:09;13.63;;;4.70;;
68923;SDS011;55961;52.156;20.942;2022-12-13T00:08:36;8.37;;;3.17;;
68923;SDS011;55961;52.156;20.942;2022-12-13T00:11:03;10.82;;;4.05;;
68923;SDS011;55961;52.156;20.942;2022-12-13T00:13:31;11.32;;;4.18;;
68923;SDS011;55961;52.156;20.942;2022-12-13T00:15:58;15.95;;;5.97;;
68923;SDS011;55961;52.156;20.942;2022-12-13T00:18:27;14.93;;;5.13;;
68923;SDS011;55961;52.156;20.942;2022-12-13T00:20:53;14.47;;;5.10;;
68923;SDS011;55961;52.156;20.942;2022-12-13T00:23:19;9.85;;;4.45;;
68923;SDS011;55961;52.156;20.942;2022-12-13T00:25:46;8.77;;;4.05;;
68923;SDS011;55961;52.156;20.942;2022-12-13T00:28:12;9.40;;;3.88;;
68923;SDS011;55961;52.156;20.942;2022-12-13T00:30:38;9.90;;;3.80;;
68923;SDS011;55961;52.156;20.942;2022-12-13T00:33:05;11.03;;;5.13;;
68923;SDS011;55961;52.156;20.942;2022-12-13T00:35:31;12.20;;;5.18;;
68923;SDS011;55961;52.156;20.942;2022-12-13T00:37:57;8.73;;;4.63;;
68923;SDS011;55961;52.156;20.942;2022-12-13T00:40:23;13.32;;;5.43;;
68923;SDS011;55961;52.156;20.942;2022-12-13T00:42:49;11.20;;;4.83;;
68923;SDS011;55961;52.156;20.942;2022-12-13T00:45:15;10.77;;;3.78;;
68923;SDS011;55961;52.156;20.942;2022-12-13T00:47:41;9.32;;;3.75;;
68923;SDS011;55961;52.156;20.942;2022-12-13T00:50:07;10.07;;;3.53;;
68923;SDS011;55961;52.156;20.942;2022-12-13T00:52:33;11.90;;;5.20;;
68923;SDS011;55961;52.156;20.942;2022-12-13T00:54:59;13.27;;;5.65;;
68923;SDS011;55961;52.156;20.942;2022-12-13T00:57:25;12.83;;;5.20;;
68923;SDS011;55961;52.156;20.942;2022-12-13T00:59:51;13.65;;;5.35;;
68923;SDS011;55961;52.156;20.942;2022-12-13T01:02:17;10.77;;;4.07;;
68923;SDS011;55961;52.156;20.942;2022-12-13T01:04:43;11.50;;;4.82;;
68923;SDS011;55961;52.156;20.942;2022-12-13T01:07:09;12.10;;;4.97;;
68923;SDS011;55961;52.156;20.942;2022-12-13T01:09:35;13.43;;;5.50;;
68923;SDS011;55961;52.156;20.942;2022-12-13T01:12:03;10.77;;;5.18;;
68923;SDS011;55961;52.156;20.942;2022-12-13T01:14:33;12.55;;;5.93;;
68923;SDS011;55961;52.156;20.942;2022-12-13T01:17:00;12.13;;;5.67;;
68923;SDS011;55961;52.156;20.942;2022-12-13T01:19:26;13.65;;;5.85;;
68923;SDS011;55961;52.156;20.942;2022-12-13T01:21:56;13.90;;;5.95;;
68923;SDS011;55961;52.156;20.942;2022-12-13T01:24:23;14.80;;;5.50;;
68923;SDS011;55961;52.156;20.942;2022-12-13T01:26:50;19.08;;;6.88;;
68923;SDS011;55961;52.156;20.942;2022-12-13T01:29:18;11.77;;;4.60;;
68923;SDS011;55961;52.156;20.942;2022-12-13T01:31:45;14.45;;;4.72;;
68923;SDS011;55961;52.156;20.942;2022-12-13T01:34:11;13.50;;;5.40;;
68923;SDS011;55961;52.156;20.942;2022-12-13T01:36:39;8.73;;;3.13;;
68923;SDS011;55961;52.156;20.942;2022-12-13T01:39:07;10.10;;;4.05;;
68923;SDS011;55961;52.156;20.942;2022-12-13T01:41:34;9.73;;;3.38;;
68923;SDS011;55961;52.156;20.942;2022-12-13T01:44:01;9.55;;;4.05;;
68923;SDS011;55961;52.156;20.942;2022-12-13T01:46:48;12.88;;;4.35;;
68923;SDS011;55961;52.156;20.942;2022-12-13T01:49:14;12.43;;;5.40;;
68923;SDS011;55961;52.156;20.942;2022-12-13T01:51:44;9.30;;;4.18;;
68923;SDS011;55961;52.156;20.942;2022-12-13T01:54:18;8.07;;;2.83;;
68923;SDS011;55961;52.156;20.942;2022-12-13T01:56:50;11.95;;;5.30;;
68923;SDS011;55961;52.156;20.942;2022-12-13T01:59:18;11.63;;;4.67;;
68923;SDS011;55961;52.156;20.942;2022-12-13T02:01:46;12.38;;;3.75;;
68923;SDS011;55961;52.156;20.942;2022-12-13T02:07:14;10.77;;;4.32;;
68923;SDS011;55961;52.156;20.942;2022-12-13T02:09:43;10.40;;;4.28;;
68923;SDS011;55961;52.156;20.942;2022-12-13T02:12:10;11.10;;;4.07;;
68923;SDS011;55961;52.156;20.942;2022-12-13T02:14:37;9.23;;;3.90;;
68923;SDS011;55961;52.156;20.942;2022-12-13T02:19:55;9.55;;;4.63;;
68923;SDS011;55961;52.156;20.942;2022-12-13T02:28:18;10.13;;;4.30;;
68923;SDS011;55961;52.156;20.942;2022-12-13T02:31:09;11.98;;;4.07;;
68923;SDS011;55961;52.156;20.942;2022-12-13T02:36:32;10.95;;;4.30;;
68923;SDS011;55961;52.156;20.942;2022-12-13T02:39:10;11.73;;;5.20;;
68923;SDS011;55961;52.156;20.942;2022-12-13T02:41:49;10.73;;;4.85;;
68923;SDS011;55961;52.156;20.942;2022-12-13T02:44:38;10.48;;;4.10;;
68923;SDS011;55961;52.156;20.942;2022-12-13T02:47:14;12.20;;;4.45;;
68923;SDS011;55961;52.156;20.942;2022-12-13T02:49:46;7.32;;;3.47;;
68923;SDS011;55961;52.156;20.942;2022-12-13T02:52:16;11.30;;;4.07;;
68923;SDS011;55961;52.156;20.942;2022-12-13T02:54:45;7.15;;;2.03;;
68923;SDS011;55961;52.156;20.942;2022-12-13T02:57:31;8.25;;;3.60;;
68923;SDS011;55961;52.156;20.942;2022-12-13T03:00:03;11.70;;;4.65;;
68923;SDS011;55961;52.156;20.942;2022-12-13T03:02:39;13.15;;;4.68;;
68923;SDS011;55961;52.156;20.942;2022-12-13T03:13:22;11.25;;;4.78;;
68923;SDS011;55961;52.156;20.942;2022-12-13T03:16:12;10.05;;;3.72;;
68923;SDS011;55961;52.156;20.942;2022-12-13T03:18:46;10.30;;;4.40;;
68923;SDS011;55961;52.156;20.942;2022-12-13T03:21:13;11.60;;;5.50;;
68923;SDS011;55961;52.156;20.942;2022-12-13T03:23:39;8.90;;;3.55;;
68923;SDS011;55961;52.156;20.942;2022-12-13T03:28:38;12.07;;;4.63;;
68923;SDS011;55961;52.156;20.942;2022-12-13T03:31:05;12.90;;;5.38;;
68923;SDS011;55961;52.156;20.942;2022-12-13T03:33:31;14.23;;;6.40;;
68923;SDS011;55961;52.156;20.942;2022-12-13T03:35:57;12.90;;;4.75;;
68923;SDS011;55961;52.156;20.942;2022-12-13T03:38:24;16.50;;;5.90;;
68923;SDS011;55961;52.156;20.942;2022-12-13T03:40:51;14.67;;;5.33;;
68923;SDS011;55961;52.156;20.942;2022-12-13T03:43:20;9.90;;;4.22;;
68923;SDS011;55961;52.156;20.942;2022-12-13T03:45:46;13.77;;;6.05;;
68923;SDS011;55961;52.156;20.942;2022-12-13T03:48:12;17.07;;;6.37;;
68923;SDS011;55961;52.156;20.942;2022-12-13T03:50:38;11.63;;;5.55;;
68923;SDS011;55961;52.156;20.942;2022-12-13T03:53:04;14.98;;;6.22;;
68923;SDS011;55961;52.156;20.942;2022-12-13T03:55:29;16.93;;;8.20;;
68923;SDS011;55961;52.156;20.942;2022-12-13T03:57:55;11.10;;;5.00;;
68923;SDS011;55961;52.156;20.942;2022-12-13T04:00:21;13.00;;;5.65;;
68923;SDS011;55961;52.156;20.942;2022-12-13T04:02:47;12.20;;;5.17;;
68923;SDS011;55961;52.156;20.942;2022-12-13T04:05:13;15.48;;;7.53;;
68923;SDS011;55961;52.156;20.942;2022-12-13T04:07:39;10.98;;;4.75;;
68923;SDS011;55961;52.156;20.942;2022-12-13T04:10:05;13.88;;;5.05;;
68923;SDS011;55961;52.156;20.942;2022-12-13T04:12:31;15.03;;;6.10;;
68923;SDS011;55961;52.156;20.942;2022-12-13T04:15:16;11.70;;;5.47;;
68923;SDS011;55961;52.156;20.942;2022-12-13T04:17:41;15.70;;;6.32;;
68923;SDS011;55961;52.156;20.942;2022-12-13T04:20:08;12.93;;;5.97;;
68923;SDS011;55961;52.156;20.942;2022-12-13T04:22:34;13.97;;;6.47;;
68923;SDS011;55961;52.156;20.942;2022-12-13T04:25:00;14.80;;;5.38;;
68923;SDS011;55961;52.156;20.942;2022-12-13T04:27:26;15.38;;;7.40;;
68923;SDS011;55961;52.156;20.942;2022-12-13T04:29:52;10.98;;;5.30;;
68923;SDS011;55961;52.156;20.942;2022-12-13T04:32:17;11.50;;;5.43;;
68923;SDS011;55961;52.156;20.942;2022-12-13T04:34:44;14.13;;;5.82;;
68923;SDS011;55961;52.156;20.942;2022-12-13T04:37:10;16.17;;;6.63;;
68923;SDS011;55961;52.156;20.942;2022-12-13T04:39:36;15.33;;;7.17;;
68923;SDS011;55961;52.156;20.942;2022-12-13T04:42:02;17.38;;;7.20;;
68923;SDS011;55961;52.156;20.942;2022-12-13T04:44:29;12.05;;;4.97;;
68923;SDS011;55961;52.156;20.942;2022-12-13T04:46:55;20.33;;;6.22;;
68923;SDS011;55961;52.156;20.942;2022-12-13T04:49:21;17.77;;;8.80;;
68923;SDS011;55961;52.156;20.942;2022-12-13T04:51:47;15.48;;;7.05;;
68923;SDS011;55961;52.156;20.942;2022-12-13T04:54:13;19.58;;;8.00;;
68923;SDS011;55961;52.156;20.942;2022-12-13T04:56:39;14.23;;;7.00;;
68923;SDS011;55961;52.156;20.942;2022-12-13T04:59:05;21.52;;;7.57;;
68923;SDS011;55961;52.156;20.942;2022-12-13T05:01:31;17.20;;;6.90;;
68923;SDS011;55961;52.156;20.942;2022-12-13T05:03:57;9.67;;;5.40;;
68923;SDS011;55961;52.156;20.942;2022-12-13T05:06:22;13.30;;;5.55;;
68923;SDS011;55961;52.156;20.942;2022-12-13T05:08:49;14.32;;;5.38;;
68923;SDS011;55961;52.156;20.942;2022-12-13T05:11:15;10.77;;;5.13;;
68923;SDS011;55961;52.156;20.942;2022-12-13T05:13:41;11.45;;;5.45;;
68923;SDS011;55961;52.156;20.942;2022-12-13T05:16:07;15.60;;;6.32;;
68923;SDS011;55961;52.156;20.942;2022-12-13T05:18:33;14.83;;;6.43;;
68923;SDS011;55961;52.156;20.942;2022-12-13T05:21:01;14.10;;;5.20;;
68923;SDS011;55961;52.156;20.942;2022-12-13T05:23:32;14.73;;;6.82;;
68923;SDS011;55961;52.156;20.942;2022-12-13T05:25:58;8.75;;;4.90;;
68923;SDS011;55961;52.156;20.942;2022-12-13T05:28:24;11.43;;;5.20;;
68923;SDS011;55961;52.156;20.942;2022-12-13T05:30:56;16.50;;;6.17;;
68923;SDS011;55961;52.156;20.942;2022-12-13T05:33:30;15.45;;;5.60;;
68923;SDS011;55961;52.156;20.942;2022-12-13T05:35:56;12.02;;;5.18;;
68923;SDS011;55961;52.156;20.942;2022-12-13T05:38:22;13.77;;;5.55;;
68923;SDS011;55961;52.156;20.942;2022-12-13T05:40:48;11.07;;;5.13;;
68923;SDS011;55961;52.156;20.942;2022-12-13T05:43:14;13.27;;;5.27;;
68923;SDS011;55961;52.156;20.942;2022-12-13T05:45:40;15.48;;;6.45;;
68923;SDS011;55961;52.156;20.942;2022-12-13T05:48:06;13.02;;;5.20;;
68923;SDS011;55961;52.156;20.942;2022-12-13T05:50:33;10.93;;;4.05;;
68923;SDS011;55961;52.156;20.942;2022-12-13T05:52:59;15.55;;;6.25;;
68923;SDS011;55961;52.156;20.942;2022-12-13T05:55:25;11.40;;;4.90;;
68923;SDS011;55961;52.156;20.942;2022-12-13T05:57:51;11.05;;;4.22;;
68923;SDS011;55961;52.156;20.942;2022-12-13T06:00:17;12.37;;;5.63;;
68923;SDS011;55961;52.156;20.942;2022-12-13T06:02:43;13.15;;;4.97;;
68923;SDS011;55961;52.156;20.942;2022-12-13T06:05:09;10.68;;;4.85;;
68923;SDS011;55961;52.156;20.942;2022-12-13T06:07:36;11.65;;;5.45;;
68923;SDS011;55961;52.156;20.942;2022-12-13T06:10:03;14.67;;;5.77;;
68923;SDS011;55961;52.156;20.942;2022-12-13T06:12:30;11.57;;;4.70;;
68923;SDS011;55961;52.156;20.942;2022-12-13T06:14:56;13.43;;;5.75;;
68923;SDS011;55961;52.156;20.942;2022-12-13T06:17:22;9.95;;;4.53;;
68923;SDS011;55961;52.156;20.942;2022-12-13T06:19:49;13.80;;;4.88;;
68923;SDS011;55961;52.156;20.942;2022-12-13T06:22:16;13.30;;;4.07;;
68923;SDS011;55961;52.156;20.942;2022-12-13T06:24:42;10.43;;;4.68;;
68923;SDS011;55961;52.156;20.942;2022-12-13T06:27:08;10.13;;;4.50;;
68923;SDS011;55961;52.156;20.942;2022-12-13T06:29:34;13.50;;;6.20;;
68923;SDS011;55961;52.156;20.942;2022-12-13T06:32:01;12.50;;;5.18;;
68923;SDS011;55961;52.156;20.942;2022-12-13T06:34:27;9.83;;;4.57;;
68923;SDS011;55961;52.156;20.942;2022-12-13T06:36:53;9.27;;;3.45;;
68923;SDS011;55961;52.156;20.942;2022-12-13T06:39:19;11.15;;;6.13;;
68923;SDS011;55961;52.156;20.942;2022-12-13T06:41:45;10.75;;;3.92;;
68923;SDS011;55961;52.156;20.942;2022-12-13T06:44:11;10.10;;;4.43;;
68923;SDS011;55961;52.156;20.942;2022-12-13T06:46:37;8.63;;;3.33;;
68923;SDS011;55961;52.156;20.942;2022-12-13T06:49:03;7.45;;;3.60;;
68923;SDS011;55961;52.156;20.942;2022-12-13T06:51:29;10.55;;;5.10;;
68923;SDS011;55961;52.156;20.942;2022-12-13T06:53:57;9.32;;;3.92;;
68923;SDS011;55961;52.156;20.942;2022-12-13T06:56:23;10.97;;;5.80;;
68923;SDS011;55961;52.156;20.942;2022-12-13T06:58:49;8.90;;;3.63;;
68923;SDS011;55961;52.156;20.942;2022-12-13T07:01:17;13.27;;;4.75;;
68923;SDS011;55961;52.156;20.942;2022-12-13T07:03:43;10.20;;;3.90;;
68923;SDS011;55961;52.156;20.942;2022-12-13T07:06:17;9.87;;;3.83;;
68923;SDS011;55961;52.156;20.942;2022-12-13T07:08:48;10.27;;;4.10;;
68923;SDS011;55961;52.156;20.942;2022-12-13T07:11:20;11.88;;;4.68;;
68923;SDS011;55961;52.156;20.942;2022-12-13T07:13:47;13.70;;;3.75;;
68923;SDS011;55961;52.156;20.942;2022-12-13T07:16:14;9.20;;;2.63;;
68923;SDS011;55961;52.156;20.942;2022-12-13T07:18:40;11.90;;;3.70;;
68923;SDS011;55961;52.156;20.942;2022-12-13T07:21:07;10.98;;;3.35;;
68923;SDS011;55961;52.156;20.942;2022-12-13T07:23:35;10.00;;;3.90;;
68923;SDS011;55961;52.156;20.942;2022-12-13T07:26:01;8.07;;;3.40;;
68923;SDS011;55961;52.156;20.942;2022-12-13T07:28:28;14.73;;;5.20;;
68923;SDS011;55961;52.156;20.942;2022-12-13T07:30:59;9.65;;;3.47;;
68923;SDS011;55961;52.156;20.942;2022-12-13T07:33:26;10.43;;;4.03;;
68923;SDS011;55961;52.156;20.942;2022-12-13T07:36:13;10.73;;;4.72;;
68923;SDS011;55961;52.156;20.942;2022-12-13T07:38:40;9.15;;;3.00;;
68923;SDS011;55961;52.156;20.942;2022-12-13T07:41:07;11.50;;;4.73;;
68923;SDS011;55961;52.156;20.942;2022-12-13T07:43:33;9.35;;;3.55;;
68923;SDS011;55961;52.156;20.942;2022-12-13T07:46:00;10.68;;;4.78;;
68923;SDS011;55961;52.156;20.942;2022-12-13T07:48:28;8.38;;;3.90;;
68923;SDS011;55961;52.156;20.942;2022-12-13T07:50:59;14.02;;;4.15;;
68923;SDS011;55961;52.156;20.942;2022-12-13T07:53:26;10.97;;;5.83;;
68923;SDS011;55961;52.156;20.942;2022-12-13T07:55:53;17.67;;;6.20;;
68923;SDS011;55961;52.156;20.942;2022-12-13T07:58:19;16.27;;;5.75;;
68923;SDS011;55961;52.156;20.942;2022-12-13T08:00:45;14.77;;;6.10;;
68923;SDS011;55961;52.156;20.942;2022-12-13T08:03:12;11.57;;;5.07;;
68923;SDS011;55961;52.156;20.942;2022-12-13T08:05:38;12.97;;;5.27;;
68923;SDS011;55961;52.156;20.942;2022-12-13T08:08:05;16.35;;;6.57;;
68923;SDS011;55961;52.156;20.942;2022-12-13T08:10:33;16.35;;;6.45;;
68923;SDS011;55961;52.156;20.942;2022-12-13T08:13:02;11.40;;;4.88;;
68923;SDS011;55961;52.156;20.942;2022-12-13T08:15:28;15.53;;;5.33;;
68923;SDS011;55961;52.156;20.942;2022-12-13T08:17:55;6.07;;;2.83;;
68923;SDS011;55961;52.156;20.942;2022-12-13T08:20:21;17.83;;;6.75;;
68923;SDS011;55961;52.156;20.942;2022-12-13T08:22:54;14.02;;;5.10;;
68923;SDS011;55961;52.156;20.942;2022-12-13T08:25:21;13.87;;;5.23;;
68923;SDS011;55961;52.156;20.942;2022-12-13T08:27:47;20.05;;;6.38;;
68923;SDS011;55961;52.156;20.942;2022-12-13T08:30:13;13.43;;;5.57;;
68923;SDS011;55961;52.156;20.942;2022-12-13T08:32:39;9.17;;;4.03;;
68923;SDS011;55961;52.156;20.942;2022-12-13T08:35:05;10.35;;;4.10;;
68923;SDS011;55961;52.156;20.942;2022-12-13T08:37:31;12.52;;;5.22;;
68923;SDS011;55961;52.156;20.942;2022-12-13T08:39:57;11.55;;;4.82;;
68923;SDS011;55961;52.156;20.942;2022-12-13T08:42:23;16.70;;;6.57;;
68923;SDS011;55961;52.156;20.942;2022-12-13T08:44:50;11.73;;;5.07;;
68923;SDS011;55961;52.156;20.942;2022-12-13T08:47:21;11.00;;;4.40;;
68923;SDS011;55961;52.156;20.942;2022-12-13T08:49:48;8.23;;;3.60;;
68923;SDS011;55961;52.156;20.942;2022-12-13T08:52:14;14.20;;;5.60;;
68923;SDS011;55961;52.156;20.942;2022-12-13T08:54:40;13.40;;;4.93;;
68923;SDS011;55961;52.156;20.942;2022-12-13T08:57:05;12.98;;;4.97;;
68923;SDS011;55961;52.156;20.942;2022-12-13T08:59:31;10.93;;;4.17;;
68923;SDS011;55961;52.156;20.942;2022-12-13T09:01:57;10.05;;;3.95;;
68923;SDS011;55961;52.156;20.942;2022-12-13T09:04:23;8.07;;;3.80;;
68923;SDS011;55961;52.156;20.942;2022-12-13T09:06:49;10.27;;;3.93;;
68923;SDS011;55961;52.156;20.942;2022-12-13T09:09:15;9.75;;;4.50;;
68923;SDS011;55961;52.156;20.942;2022-12-13T09:11:41;9.87;;;4.93;;
68923;SDS011;55961;52.156;20.942;2022-12-13T09:14:07;12.10;;;4.60;;
68923;SDS011;55961;52.156;20.942;2022-12-13T09:16:33;13.32;;;5.85;;
68923;SDS011;55961;52.156;20.942;2022-12-13T09:19:00;9.27;;;3.92;;
68923;SDS011;55961;52.156;20.942;2022-12-13T09:21:27;12.65;;;5.38;;
68923;SDS011;55961;52.156;20.942;2022-12-13T09:23:53;10.75;;;4.40;;
68923;SDS011;55961;52.156;20.942;2022-12-13T09:26:19;12.03;;;3.67;;
68923;SDS011;55961;52.156;20.942;2022-12-13T09:28:45;9.65;;;3.75;;
68923;SDS011;55961;52.156;20.942;2022-12-13T09:31:12;11.82;;;4.18;;
68923;SDS011;55961;52.156;20.942;2022-12-13T09:33:40;7.50;;;2.50;;
68923;SDS011;55961;52.156;20.942;2022-12-13T09:36:06;10.57;;;3.75;;
68923;SDS011;55961;52.156;20.942;2022-12-13T09:38:34;12.07;;;5.65;;
68923;SDS011;55961;52.156;20.942;2022-12-13T09:43:36;10.43;;;4.13;;
68923;SDS011;55961;52.156;20.942;2022-12-13T09:46:06;11.27;;;3.67;;
68923;SDS011;55961;52.156;20.942;2022-12-13T09:48:37;12.88;;;5.13;;
68923;SDS011;55961;52.156;20.942;2022-12-13T09:51:03;10.88;;;4.50;;
68923;SDS011;55961;52.156;20.942;2022-12-13T09:53:29;9.27;;;3.97;;
68923;SDS011;55961;52.156;20.942;2022-12-13T09:55:55;11.13;;;4.60;;
68923;SDS011;55961;52.156;20.942;2022-12-13T09:58:27;7.60;;;3.53;;
68923;SDS011;55961;52.156;20.942;2022-12-13T10:00:56;9.73;;;4.45;;
68923;SDS011;55961;52.156;20.942;2022-12-13T10:03:23;7.70;;;2.55;;
68923;SDS011;55961;52.156;20.942;2022-12-13T10:05:53;10.27;;;4.67;;
68923;SDS011;55961;52.156;20.942;2022-12-13T10:08:31;10.52;;;4.63;;
68923;SDS011;55961;52.156;20.942;2022-12-13T10:11:02;11.25;;;4.47;;
68923;SDS011;55961;52.156;20.942;2022-12-13T10:18:40;9.33;;;3.87;;
68923;SDS011;55961;52.156;20.942;2022-12-13T10:21:10;11.45;;;3.67;;
68923;SDS011;55961;52.156;20.942;2022-12-13T10:23:39;7.93;;;2.97;;
68923;SDS011;55961;52.156;20.942;2022-12-13T10:26:09;11.32;;;4.03;;
68923;SDS011;55961;52.156;20.942;2022-12-13T10:28:37;11.93;;;4.90;;
68923;SDS011;55961;52.156;20.942;2022-12-13T10:31:04;10.87;;;4.60;;
68923;SDS011;55961;52.156;20.942;2022-12-13T10:36:03;8.60;;;3.47;;
68923;SDS011;55961;52.156;20.942;2022-12-13T10:38:34;9.63;;;4.47;;
68923;SDS011;55961;52.156;20.942;2022-12-13T10:41:02;7.75;;;3.20;;
68923;SDS011;55961;52.156;20.942;2022-12-13T10:43:54;13.67;;;4.67;;
68923;SDS011;55961;52.156;20.942;2022-12-13T10:46:31;13.07;;;5.57;;
68923;SDS011;55961;52.156;20.942;2022-12-13T10:48:57;6.68;;;3.08;;
68923;SDS011;55961;52.156;20.942;2022-12-13T10:51:23;9.57;;;4.97;;
68923;SDS011;55961;52.156;20.942;2022-12-13T10:53:51;10.95;;;3.70;;
68923;SDS011;55961;52.156;20.942;2022-12-13T10:56:22;10.20;;;4.53;;
68923;SDS011;55961;52.156;20.942;2022-12-13T10:59:09;13.38;;;5.30;;
68923;SDS011;55961;52.156;20.942;2022-12-13T11:01:46;13.70;;;5.25;;
68923;SDS011;55961;52.156;20.942;2022-12-13T11:06:52;11.63;;;5.30;;
68923;SDS011;55961;52.156;20.942;2022-12-13T11:09:31;13.00;;;5.33;;
68923;SDS011;55961;52.156;20.942;2022-12-13T11:12:18;14.40;;;5.50;;
68923;SDS011;55961;52.156;20.942;2022-12-13T11:15:00;10.13;;;3.95;;
68923;SDS011;55961;52.156;20.942;2022-12-13T11:17:29;14.65;;;5.75;;
68923;SDS011;55961;52.156;20.942;2022-12-13T11:20:05;11.82;;;4.80;;
68923;SDS011;55961;52.156;20.942;2022-12-13T11:22:39;11.77;;;4.73;;
68923;SDS011;55961;52.156;20.942;2022-12-13T11:30:17;13.73;;;5.60;;
68923;SDS011;55961;52.156;20.942;2022-12-13T11:33:19;12.20;;;5.03;;
68923;SDS011;55961;52.156;20.942;2022-12-13T11:36:07;10.07;;;4.15;;
68923;SDS011;55961;52.156;20.942;2022-12-13T11:44:18;10.23;;;4.95;;
68923;SDS011;55961;52.156;20.942;2022-12-13T11:47:13;14.33;;;5.83;;
68923;SDS011;55961;52.156;20.942;2022-12-13T11:49:51;8.55;;;3.50;;
68923;SDS011;55961;52.156;20.942;2022-12-13T11:52:28;12.77;;;6.25;;
68923;SDS011;55961;52.156;20.942;2022-12-13T11:55:00;10.35;;;4.32;;
68923;SDS011;55961;52.156;20.942;2022-12-13T12:00:30;7.97;;;3.23;;
68923;SDS011;55961;52.156;20.942;2022-12-13T12:02:59;9.23;;;4.32;;
68923;SDS011;55961;52.156;20.942;2022-12-13T12:05:50;14.95;;;5.60;;
68923;SDS011;55961;52.156;20.942;2022-12-13T12:08:27;11.70;;;4.57;;
68923;SDS011;55961;52.156;20.942;2022-12-13T12:11:06;8.57;;;3.70;;
68923;SDS011;55961;52.156;20.942;2022-12-13T12:13:49;10.73;;;4.03;;
68923;SDS011;55961;52.156;20.942;2022-12-13T12:18:50;10.18;;;4.38;;
68923;SDS011;55961;52.156;20.942;2022-12-13T12:21:23;11.80;;;5.35;;
68923;SDS011;55961;52.156;20.942;2022-12-13T12:29:50;15.98;;;5.78;;
68923;SDS011;55961;52.156;20.942;2022-12-13T12:41:45;7.83;;;3.97;;
68923;SDS011;55961;52.156;20.942;2022-12-13T12:46:58;11.98;;;4.43;;
68923;SDS011;55961;52.156;20.942;2022-12-13T12:49:37;14.70;;;5.68;;
68923;SDS011;55961;52.156;20.942;2022-12-13T12:55:15;11.03;;;3.93;;
68923;SDS011;55961;52.156;20.942;2022-12-13T12:58:18;7.85;;;3.80;;
68923;SDS011;55961;52.156;20.942;2022-12-13T13:00:59;11.35;;;4.25;;
68923;SDS011;55961;52.156;20.942;2022-12-13T13:03:30;13.77;;;6.32;;
68923;SDS011;55961;52.156;20.942;2022-12-13T13:06:01;13.70;;;5.93;;
68923;SDS011;55961;52.156;20.942;2022-12-13T13:08:36;12.20;;;5.10;;
68923;SDS011;55961;52.156;20.942;2022-12-13T13:11:10;12.95;;;5.32;;
68923;SDS011;55961;52.156;20.942;2022-12-13T13:13:47;13.98;;;5.82;;
68923;SDS011;55961;52.156;20.942;2022-12-13T13:18:58;12.32;;;4.22;;
68923;SDS011;55961;52.156;20.942;2022-12-13T13:26:28;11.98;;;5.55;;
68923;SDS011;55961;52.156;20.942;2022-12-13T13:36:59;20.35;;;7.28;;
68923;SDS011;55961;52.156;20.942;2022-12-13T14:14:35;16.67;;;7.38;;
68923;SDS011;55961;52.156;20.942;2022-12-13T14:19:56;20.27;;;8.25;;
68923;SDS011;55961;52.156;20.942;2022-12-13T14:31:13;25.67;;;8.77;;
68923;SDS011;55961;52.156;20.942;2022-12-13T14:33:43;19.00;;;6.95;;
68923;SDS011;55961;52.156;20.942;2022-12-13T14:36:13;22.10;;;8.50;;
68923;SDS011;55961;52.156;20.942;2022-12-13T14:38:41;21.75;;;8.98;;
68923;SDS011;55961;52.156;20.942;2022-12-13T14:41:15;24.58;;;9.00;;
68923;SDS011;55961;52.156;20.942;2022-12-13T14:43:43;20.83;;;8.75;;
68923;SDS011;55961;52.156;20.942;2022-12-13T14:46:11;24.20;;;8.20;;
68923;SDS011;55961;52.156;20.942;2022-12-13T14:48:43;23.70;;;8.33;;
68923;SDS011;55961;52.156;20.942;2022-12-13T14:53:58;21.25;;;8.07;;
68923;SDS011;55961;52.156;20.942;2022-12-13T14:56:26;15.32;;;6.63;;
68923;SDS011;55961;52.156;20.942;2022-12-13T14:59:00;15.32;;;6.47;;
68923;SDS011;55961;52.156;20.942;2022-12-13T15:01:31;14.83;;;6.97;;
68923;SDS011;55961;52.156;20.942;2022-12-13T15:07:03;22.15;;;8.98;;
68923;SDS011;55961;52.156;20.942;2022-12-13T15:09:38;20.83;;;8.93;;
68923;SDS011;55961;52.156;20.942;2022-12-13T15:12:13;24.20;;;9.38;;
68923;SDS011;55961;52.156;20.942;2022-12-13T15:14:41;20.80;;;7.67;;
68923;SDS011;55961;52.156;20.942;2022-12-13T15:19:56;24.65;;;9.73;;
68923;SDS011;55961;52.156;20.942;2022-12-13T15:22:22;20.65;;;9.13;;
68923;SDS011;55961;52.156;20.942;2022-12-13T15:24:48;25.02;;;10.60;;
68923;SDS011;55961;52.156;20.942;2022-12-13T15:27:18;23.30;;;9.57;;
68923;SDS011;55961;52.156;20.942;2022-12-13T15:29:47;24.58;;;10.00;;
68923;SDS011;55961;52.156;20.942;2022-12-13T15:32:14;24.13;;;9.93;;
68923;SDS011;55961;52.156;20.942;2022-12-13T15:34:44;34.28;;;15.23;;
68923;SDS011;55961;52.156;20.942;2022-12-13T15:39:38;58.60;;;27.73;;
68923;SDS011;55961;52.156;20.942;2022-12-13T15:42:28;46.42;;;18.45;;
68923;SDS011;55961;52.156;20.942;2022-12-13T15:44:57;45.33;;;19.02;;
68923;SDS011;55961;52.156;20.942;2022-12-13T15:47:25;52.65;;;27.50;;
68923;SDS011;55961;52.156;20.942;2022-12-13T15:49:53;39.55;;;18.45;;
68923;SDS011;55961;52.156;20.942;2022-12-13T15:52:25;29.47;;;13.23;;
68923;SDS011;55961;52.156;20.942;2022-12-13T15:57:34;26.55;;;10.50;;
68923;SDS011;55961;52.156;20.942;2022-12-13T16:00:21;28.08;;;11.32;;
68923;SDS011;55961;52.156;20.942;2022-12-13T16:02:50;26.42;;;12.07;;
68923;SDS011;55961;52.156;20.942;2022-12-13T16:05:30;19.50;;;8.23;;
68923;SDS011;55961;52.156;20.942;2022-12-13T16:08:02;21.30;;;7.03;;
68923;SDS011;55961;52.156;20.942;2022-12-13T16:10:31;24.63;;;10.70;;
68923;SDS011;55961;52.156;20.942;2022-12-13T16:13:04;30.00;;;12.63;;
68923;SDS011;55961;52.156;20.942;2022-12-13T16:15:32;28.52;;;11.50;;
68923;SDS011;55961;52.156;20.942;2022-12-13T16:18:22;21.57;;;8.23;;
68923;SDS011;55961;52.156;20.942;2022-12-13T16:20:53;25.83;;;11.00;;
68923;SDS011;55961;52.156;20.942;2022-12-13T16:23:19;20.38;;;8.98;;
68923;SDS011;55961;52.156;20.942;2022-12-13T16:25:45;35.42;;;14.40;;
68923;SDS011;55961;52.156;20.942;2022-12-13T16:28:12;22.17;;;9.60;;
68923;SDS011;55961;52.156;20.942;2022-12-13T16:33:20;25.83;;;10.45;;
68923;SDS011;55961;52.156;20.942;2022-12-13T16:35:47;24.05;;;9.10;;
68923;SDS011;55961;52.156;20.942;2022-12-13T16:38:14;31.27;;;11.57;;
68923;SDS011;55961;52.156;20.942;2022-12-13T16:40:41;30.07;;;12.23;;
68923;SDS011;55961;52.156;20.942;2022-12-13T16:43:18;29.88;;;10.02;;
68923;SDS011;55961;52.156;20.942;2022-12-13T16:45:47;29.33;;;12.43;;
68923;SDS011;55961;52.156;20.942;2022-12-13T16:48:14;24.35;;;7.85;;
68923;SDS011;55961;52.156;20.942;2022-12-13T16:50:42;28.55;;;12.38;;
68923;SDS011;55961;52.156;20.942;2022-12-13T16:53:12;30.90;;;12.47;;
68923;SDS011;55961;52.156;20.942;2022-12-13T16:55:38;29.65;;;13.43;;
68923;SDS011;55961;52.156;20.942;2022-12-13T16:58:05;31.98;;;13.15;;
68923;SDS011;55961;52.156;20.942;2022-12-13T17:00:35;30.30;;;13.77;;
68923;SDS011;55961;52.156;20.942;2022-12-13T17:03:03;32.60;;;13.18;;
68923;SDS011;55961;52.156;20.942;2022-12-13T17:05:29;31.33;;;12.60;;
68923;SDS011;55961;52.156;20.942;2022-12-13T17:07:56;33.03;;;13.48;;
68923;SDS011;55961;52.156;20.942;2022-12-13T17:10:23;29.63;;;13.70;;